Time;durP1;ratioP1;P1;durP2;ratioP2;P2;SDS_P1;SDS_P2;PMS_P1;PMS_P2;Temp;Humidity;BMP_temperature;BMP_pressure;BME280_temperature;BME280_humidity;BME280_pressure;Samples;Min_cycle;Max_cycle;Signal;HPM_P1;HPM_P2
2024/03/21 00:02:52;;;;;;;5.20;2.88;;;11.00;99.90;;;;;;4982057;28;20053;-93
2024/03/21 00:06:24;;;;;;;2.40;2.20;;;10.90;99.90;;;;;;4990073;28;20054;-94
2024/03/21 00:10:03;;;;;;;4.88;2.63;;;11.00;99.90;;;;;;4980318;28;20049;-95
2024/03/21 00:17:38;;;;;;;7.07;3.03;;;10.90;99.90;;;;;;4974863;28;20169;-94
2024/03/21 00:20:57;;;;;;;4.18;2.60;;;10.90;99.90;;;;;;4973143;28;20046;-93
2024/03/21 00:24:43;;;;;;;3.85;3.10;;;10.90;99.90;;;;;;4953357;28;20521;-94
2024/03/21 00:28:34;;;;;;;3.75;2.85;;;10.80;99.90;;;;;;4975359;28;20057;-94
2024/03/21 00:32:02;;;;;;;3.15;2.85;;;10.90;99.90;;;;;;4973864;28;20109;-92
2024/03/21 00:35:16;;;;;;;3.88;2.53;;;10.90;99.90;;;;;;4904903;29;20064;-93
2024/03/21 00:38:33;;;;;;;3.17;2.78;;;10.80;99.90;;;;;;4912102;29;20066;-93
2024/03/21 00:41:56;;;;;;;4.18;3.20;;;10.90;99.90;;;;;;4918234;28;20103;-93
2024/03/21 00:45:40;;;;;;;8.73;3.17;;;10.80;99.90;;;;;;4954836;28;20124;-94
2024/03/21 00:49:05;;;;;;;6.57;3.65;;;10.80;99.90;;;;;;4895139;29;20052;-94
2024/03/21 00:52:16;;;;;;;2.75;2.55;;;10.90;99.90;;;;;;4889063;29;20405;-93
2024/03/21 00:54:46;;;;;;;3.55;3.08;;;10.80;99.90;;;;;;4879553;29;20060;-94
2024/03/21 00:57:42;;;;;;;3.23;2.80;;;10.90;99.90;;;;;;4909833;29;20107;-94
2024/03/21 01:00:08;;;;;;;2.72;2.50;;;10.80;99.90;;;;;;4918569;29;20067;-93
2024/03/21 01:03:00;;;;;;;2.67;2.45;;;10.90;99.90;;;;;;4899682;29;20063;-94
2024/03/21 01:06:01;;;;;;;5.25;2.70;;;10.80;99.90;;;;;;4944323;28;20719;-94
2024/03/21 01:08:55;;;;;;;2.90;2.60;;;10.90;99.90;;;;;;4981910;28;20050;-95
2024/03/21 01:11:46;;;;;;;5.95;2.92;;;10.80;99.90;;;;;;4957712;28;20511;-93
2024/03/21 01:14:49;;;;;;;4.28;3.05;;;10.90;99.90;;;;;;4967835;28;20058;-94
2024/03/21 01:18:16;;;;;;;3.17;2.38;;;10.80;99.90;;;;;;4980475;28;20052;-93
2024/03/21 01:21:26;;;;;;;3.28;2.92;;;10.90;99.90;;;;;;5017926;28;20614;-94
2024/03/21 01:24:46;;;;;;;3.25;2.50;;;10.90;99.90;;;;;;5020283;28;20052;-95
2024/03/21 01:28:37;;;;;;;3.58;2.95;;;10.90;99.90;;;;;;4953327;29;20129;-94
2024/03/21 01:31:25;;;;;;;3.17;2.83;;;10.80;99.90;;;;;;4935803;29;20045;-94
2024/03/21 01:34:01;;;;;;;6.85;5.45;;;10.90;99.90;;;;;;4921800;29;20091;-96
2024/03/21 01:36:58;;;;;;;2.95;2.00;;;10.80;99.90;;;;;;4934641;29;20142;-94
2024/03/21 01:39:24;;;;;;;4.05;2.67;;;10.80;99.90;;;;;;4936601;29;20055;-94
2024/03/21 01:41:51;;;;;;;3.33;3.13;;;10.80;99.90;;;;;;4933814;29;20044;-94
2024/03/21 01:45:12;;;;;;;3.80;2.55;;;10.80;99.90;;;;;;4900314;29;20044;-93
2024/03/21 01:49:37;;;;;;;5.30;4.00;;;10.80;99.90;;;;;;4892115;29;20049;-94
2024/03/21 02:48:57;;;;;;;29.35;17.90;;;9.80;99.90;;;;;;4954376;29;20455;-94
2024/03/21 03:44:39;;;;;;;8.48;5.78;;;8.00;99.90;;;;;;5001702;28;20069;-94
2024/03/21 03:48:21;;;;;;;10.02;3.00;;;8.00;99.90;;;;;;4996270;28;20527;-95
2024/03/21 03:51:30;;;;;;;6.78;1.65;;;7.90;99.90;;;;;;4964898;28;20054;-93
2024/03/21 04:02:48;;;;;;;5.78;1.63;;;7.50;99.90;;;;;;4957134;29;20103;-95
2024/03/21 04:05:35;;;;;;;6.63;1.65;;;7.50;99.90;;;;;;4925084;29;20138;-94
2024/03/21 04:08:02;;;;;;;10.77;1.52;;;7.40;99.90;;;;;;4939643;29;20097;-94
2024/03/21 04:22:46;;;;;;;9.68;1.17;;;7.30;99.90;;;;;;4937768;29;20122;-95
2024/03/21 04:40:28;;;;;;;15.55;1.88;;;7.40;99.90;;;;;;4956357;29;20054;-94
2024/03/21 04:47:27;;;;;;;9.50;1.75;;;7.40;99.90;;;;;;4981788;28;20450;-95
2024/03/21 04:51:12;;;;;;;3.50;1.25;;;7.40;99.90;;;;;;4996795;28;20059;-94
2024/03/21 04:54:55;;;;;;;3.60;1.13;;;7.20;99.90;;;;;;4995136;28;20042;-93
2024/03/21 04:58:46;;;;;;;4.30;1.50;;;7.30;99.90;;;;;;5002933;28;20104;-94
2024/03/21 05:02:14;;;;;;;4.30;1.77;;;7.30;99.90;;;;;;4974283;28;20046;-95
2024/03/21 05:05:29;;;;;;;9.18;1.77;;;7.40;99.90;;;;;;4919528;28;20137;-94
2024/03/21 05:08:37;;;;;;;7.18;1.60;;;7.40;99.90;;;;;;4941786;28;20238;-93
2024/03/21 05:11:39;;;;;;;8.88;1.95;;;7.50;99.90;;;;;;4956862;28;20073;-94
2024/03/21 05:14:59;;;;;;;6.72;1.75;;;7.60;99.90;;;;;;4915514;28;20058;-94
2024/03/21 05:18:26;;;;;;;6.13;1.67;;;7.60;99.90;;;;;;4974583;28;20062;-93
2024/03/21 05:21:10;;;;;;;7.03;1.98;;;7.60;99.90;;;;;;4945495;28;20054;-94
2024/03/21 05:24:53;;;;;;;9.57;2.10;;;7.60;99.90;;;;;;4936290;29;20067;-94
2024/03/21 05:28:40;;;;;;;4.40;1.92;;;7.70;99.90;;;;;;4898616;29;20051;-95
2024/03/21 05:36:07;;;;;;;9.70;1.65;;;7.70;99.90;;;;;;4898459;29;20537;-94
2024/03/21 05:39:28;;;;;;;10.50;2.45;;;7.70;99.90;;;;;;4880039;29;20048;-95
2024/03/21 05:46:47;;;;;;;8.65;1.85;;;7.70;99.90;;;;;;4876457;29;20036;-95
2024/03/21 06:45:23;;;;;;;9.57;2.10;;;7.50;99.90;;;;;;5035991;28;20032;-94
2024/03/21 06:48:34;;;;;;;12.10;2.65;;;7.40;99.90;;;;;;4974403;28;20054;-95
2024/03/21 06:59:33;;;;;;;5.35;1.15;;;7.40;99.90;;;;;;5016783;28;20148;-94
2024/03/21 07:40:50;;;;;;;5.55;1.50;;;7.90;99.90;;;;;;4900614;29;20100;-95
2024/03/21 08:09:43;;;;;;;8.60;2.13;;;8.60;99.90;;;;;;4843924;29;20045;-94
2024/03/21 08:12:53;;;;;;;7.03;1.40;;;8.70;99.90;;;;;;4828692;29;20644;-94
2024/03/21 08:16:26;;;;;;;9.50;1.33;;;8.70;99.90;;;;;;4850454;29;20058;-94
2024/03/21 08:19:45;;;;;;;13.68;2.45;;;8.80;99.90;;;;;;4828616;29;20089;-94
2024/03/21 08:23:32;;;;;;;14.65;2.15;;;9.10;99.90;;;;;;4853137;29;20053;-94
2024/03/21 08:27:10;;;;;;;8.15;1.92;;;9.20;99.90;;;;;;4846264;29;20137;-93
2024/03/21 08:31:06;;;;;;;8.57;1.88;;;9.20;99.90;;;;;;4848598;29;20061;-93
2024/03/21 08:34:30;;;;;;;13.13;2.10;;;9.20;99.90;;;;;;4932114;29;20051;-94
2024/03/21 08:38:01;;;;;;;4.88;1.33;;;9.20;99.90;;;;;;4932259;29;20163;-94
2024/03/21 08:41:15;;;;;;;10.57;2.08;;;9.20;99.90;;;;;;4922901;29;20062;-93
2024/03/21 08:44:06;;;;;;;9.43;2.40;;;9.30;99.90;;;;;;4906283;29;20215;-95
2024/03/21 08:47:05;;;;;;;11.13;2.17;;;9.40;1.00;;;;;;4909578;29;20534;-94
2024/03/21 08:50:25;;;;;;;11.45;4.75;;;9.50;99.90;;;;;;4943578;29;20082;-93
2024/03/21 08:53:00;;;;;;;14.73;2.22;;;9.60;99.90;;;;;;4940194;29;20063;-94
2024/03/21 09:07:27;;;;;;;6.13;1.95;;;9.50;99.90;;;;;;4807150;29;20182;-95
2024/03/21 09:11:03;;;;;;;6.68;1.80;;;9.60;99.90;;;;;;4819360;29;20061;-94
2024/03/21 09:57:26;;;;;;;8.27;1.88;;;9.80;99.90;;;;;;5006505;28;20056;-95
2024/03/21 10:00:31;;;;;;;6.60;1.75;;;9.70;99.90;;;;;;5004450;28;20173;-96
2024/03/21 10:03:47;;;;;;;9.27;2.33;;;9.60;99.90;;;;;;4962800;28;20750;-95
2024/03/21 10:06:53;;;;;;;7.40;2.05;;;9.70;99.90;;;;;;5002359;28;20060;-94
2024/03/21 10:09:56;;;;;;;7.63;1.88;;;9.80;99.90;;;;;;4960694;28;20054;-94
2024/03/21 10:12:58;;;;;;;9.15;1.60;;;9.60;99.90;;;;;;4985957;28;20064;-94
2024/03/21 10:16:45;;;;;;;7.32;1.75;;;9.50;99.90;;;;;;4913465;29;20078;-96
2024/03/21 10:19:28;;;;;;;12.43;2.47;;;9.40;99.90;;;;;;4894590;29;20144;-95
2024/03/21 10:22:19;;;;;;;9.55;3.08;;;9.40;99.90;;;;;;4940229;29;20066;-96
2024/03/21 10:24:57;;;;;;;8.00;1.83;;;9.40;99.90;;;;;;4933608;29;20371;-96
2024/03/21 10:28:01;;;;;;;6.97;2.33;;;9.60;99.90;;;;;;4930166;28;20053;-96
2024/03/21 10:30:59;;;;;;;6.03;2.33;;;9.90;99.90;;;;;;4966008;28;20506;-95
2024/03/21 10:33:32;;;;;;;4.72;2.20;;;10.10;99.90;;;;;;4949108;28;20149;-95
2024/03/21 10:36:10;;;;;;;7.50;2.10;;;10.20;99.90;;;;;;4971123;28;20054;-95
2024/03/21 10:38:37;;;;;;;10.55;2.72;;;10.20;99.90;;;;;;4936072;28;20042;-95
2024/03/21 10:41:27;;;;;;;11.35;2.67;;;10.20;99.90;;;;;;4939108;28;20092;-96
2024/03/21 10:44:17;;;;;;;8.20;2.35;;;10.20;99.90;;;;;;4960074;28;20129;-96
2024/03/21 10:46:58;;;;;;;11.60;2.92;;;10.30;99.90;;;;;;5007108;28;20061;-96
2024/03/21 10:49:49;;;;;;;3.22;1.83;;;10.40;99.90;;;;;;4987772;28;20050;-95
2024/03/21 10:53:19;;;;;;;7.22;1.88;;;10.30;99.90;;;;;;5023262;28;20095;-94
2024/03/21 10:56:10;;;;;;;10.88;1.95;;;10.30;99.90;;;;;;5011331;28;20054;-96
2024/03/21 10:59:02;;;;;;;6.43;1.25;;;10.40;99.90;;;;;;5007959;28;20088;-96
2024/03/21 11:02:17;;;;;;;4.07;2.25;;;10.30;99.90;;;;;;4970870;28;20052;-95
2024/03/21 11:05:41;;;;;;;8.75;3.40;;;10.10;99.90;;;;;;5008653;28;20050;-95
2024/03/21 11:08:32;;;;;;;12.65;3.28;;;10.10;99.90;;;;;;4987769;28;20099;-94
2024/03/21 11:11:22;;;;;;;6.47;2.30;;;10.10;99.90;;;;;;4971487;28;20182;-95
2024/03/21 11:13:50;;;;;;;10.27;1.95;;;10.00;99.90;;;;;;4955520;28;20054;-95
2024/03/21 11:17:02;;;;;;;5.65;2.08;;;9.90;99.90;;;;;;4950885;28;20391;-95
2024/03/21 11:19:53;;;;;;;9.55;2.90;;;9.90;99.90;;;;;;5082538;27;21076;-64
2024/03/21 11:22:18;;;;;;;13.95;4.53;;;9.90;99.90;;;;;;5096039;28;20048;-64
2024/03/21 11:24:44;;;;;;;12.13;3.67;;;10.00;99.90;;;;;;5081561;28;20066;-65
2024/03/21 11:27:17;;;;;;;8.60;2.45;;;9.90;99.90;;;;;;5088417;28;20040;-64
2024/03/21 11:29:43;;;;;;;5.70;2.33;;;9.80;99.90;;;;;;5081195;28;20131;-64
2024/03/21 11:32:10;;;;;;;7.80;2.95;;;9.70;99.90;;;;;;5083254;28;20718;-64
2024/03/21 11:34:37;;;;;;;8.90;3.20;;;9.70;99.90;;;;;;5090407;28;20513;-64
2024/03/21 11:37:03;;;;;;;5.03;1.85;;;9.60;99.90;;;;;;5080771;28;20036;-64
2024/03/21 11:39:29;;;;;;;13.95;6.07;;;9.60;99.90;;;;;;5083918;28;20047;-64
2024/03/21 11:42:01;;;;;;;6.47;2.47;;;9.50;99.90;;;;;;5079867;28;20051;-64
2024/03/21 11:44:27;;;;;;;6.60;2.50;;;9.50;99.90;;;;;;5093558;28;20048;-64
2024/03/21 11:46:52;;;;;;;13.45;2.88;;;9.50;99.90;;;;;;5067894;28;20080;-64
2024/03/21 11:49:19;;;;;;;7.97;2.03;;;9.50;99.90;;;;;;5088946;28;20040;-64
2024/03/21 11:51:46;;;;;;;10.18;2.33;;;9.60;99.90;;;;;;5086299;28;20044;-64
2024/03/21 11:54:13;;;;;;;5.28;1.42;;;9.60;99.90;;;;;;5087674;28;20624;-64
2024/03/21 11:56:41;;;;;;;3.10;1.55;;;9.50;99.90;;;;;;5085876;28;20188;-64
2024/03/21 11:59:08;;;;;;;8.02;2.28;;;9.50;99.90;;;;;;5080896;28;20044;-64
2024/03/21 12:01:34;;;;;;;6.60;2.35;;;9.50;99.90;;;;;;5090285;28;20446;-64
2024/03/21 12:04:00;;;;;;;5.28;2.65;;;9.50;99.90;;;;;;5078643;28;20051;-65
2024/03/21 12:06:26;;;;;;;4.43;2.35;;;9.50;99.90;;;;;;5079810;28;20113;-64
2024/03/21 12:08:53;;;;;;;4.38;2.28;;;9.40;99.90;;;;;;5089308;28;20047;-64
2024/03/21 12:11:20;;;;;;;6.43;2.85;;;9.40;99.90;;;;;;5079897;28;20105;-64
2024/03/21 12:13:47;;;;;;;7.65;2.90;;;9.40;99.90;;;;;;5090681;28;20048;-64
2024/03/21 12:16:16;;;;;;;11.05;4.45;;;9.30;99.90;;;;;;5082466;28;20040;-64
2024/03/21 12:18:42;;;;;;;8.25;2.90;;;9.30;99.90;;;;;;5094230;28;20101;-64
2024/03/21 12:21:16;;;;;;;7.80;5.43;;;9.30;99.90;;;;;;5083897;28;20036;-64
2024/03/21 12:23:43;;;;;;;9.60;2.30;;;9.30;99.90;;;;;;5091948;28;20101;-63
2024/03/21 12:26:10;;;;;;;6.45;3.40;;;9.30;99.90;;;;;;5085457;28;20040;-64
2024/03/21 12:28:37;;;;;;;6.03;2.50;;;9.50;99.90;;;;;;5079012;28;20548;-64
2024/03/21 12:31:03;;;;;;;4.68;2.40;;;9.60;99.90;;;;;;5083231;28;20588;-64
2024/03/21 12:33:29;;;;;;;15.02;8.73;;;9.60;99.90;;;;;;5079682;28;20050;-64
2024/03/21 12:35:54;;;;;;;5.85;3.40;;;9.50;99.90;;;;;;5081225;28;20040;-64
2024/03/21 12:38:20;;;;;;;9.40;3.13;;;9.50;99.90;;;;;;5069269;28;20044;-64
2024/03/21 12:40:47;;;;;;;24.75;10.85;;;9.50;99.90;;;;;;5067024;28;20048;-64
2024/03/21 12:43:13;;;;;;;6.30;2.03;;;9.40;99.90;;;;;;5075493;28;20083;-64
2024/03/21 12:45:38;;;;;;;6.40;2.67;;;9.40;99.90;;;;;;5071726;28;20127;-64
2024/03/21 12:48:05;;;;;;;5.75;2.63;;;9.40;99.90;;;;;;5069228;28;20052;-64
2024/03/21 12:50:31;;;;;;;12.27;3.90;;;9.30;99.90;;;;;;5069660;28;20577;-64
2024/03/21 12:52:56;;;;;;;5.85;4.32;;;9.40;99.90;;;;;;5068639;28;20073;-64
2024/03/21 12:55:22;;;;;;;8.73;2.47;;;9.30;99.90;;;;;;5069166;28;20127;-64
2024/03/21 12:57:48;;;;;;;5.82;2.13;;;9.30;99.90;;;;;;5065492;28;20036;-64
2024/03/21 13:00:14;;;;;;;4.88;1.83;;;9.30;99.90;;;;;;5064884;28;20839;-64
2024/03/21 13:02:39;;;;;;;3.55;1.65;;;9.30;99.90;;;;;;5065984;28;20037;-64
2024/03/21 13:05:08;;;;;;;5.80;2.17;;;9.30;99.90;;;;;;5070420;28;20048;-63
2024/03/21 13:07:34;;;;;;;6.13;1.95;;;9.40;99.90;;;;;;5073907;28;20041;-64
2024/03/21 13:09:59;;;;;;;10.68;2.67;;;9.50;99.90;;;;;;5067168;28;20448;-64
2024/03/21 13:12:26;;;;;;;9.63;4.60;;;9.50;99.90;;;;;;5056157;28;20044;-64
2024/03/21 13:14:52;;;;;;;9.80;4.28;;;9.50;99.90;;;;;;5074254;28;20051;-64
2024/03/21 13:17:19;;;;;;;5.70;2.65;;;9.50;99.90;;;;;;5080341;28;20083;-64
2024/03/21 13:19:45;;;;;;;4.75;1.80;;;9.60;99.90;;;;;;5068121;28;20489;-63
2024/03/21 13:22:11;;;;;;;5.68;2.00;;;9.50;99.90;;;;;;5075594;28;20052;-64
2024/03/21 13:24:37;;;;;;;7.40;1.80;;;9.50;99.90;;;;;;5072487;28;20058;-64
2024/03/21 13:27:03;;;;;;;2.95;1.58;;;9.50;99.90;;;;;;5069526;28;20063;-63
2024/03/21 13:29:32;;;;;;;5.38;2.45;;;9.50;99.90;;;;;;5067265;28;20504;-64
2024/03/21 13:31:57;;;;;;;6.45;1.88;;;9.50;99.90;;;;;;5078135;28;20048;-63
2024/03/21 13:34:23;;;;;;;6.80;2.60;;;9.50;99.90;;;;;;5077084;28;20047;-64
2024/03/21 13:36:49;;;;;;;4.90;1.83;;;9.40;99.90;;;;;;5071699;28;20404;-64
2024/03/21 13:39:15;;;;;;;7.45;2.30;;;9.50;99.90;;;;;;5062567;28;20071;-64
2024/03/21 13:41:44;;;;;;;6.18;2.13;;;9.40;99.90;;;;;;5069954;28;20048;-64
2024/03/21 13:44:10;;;;;;;2.97;2.30;;;9.40;99.90;;;;;;5069085;28;20060;-64
2024/03/21 13:46:36;;;;;;;7.50;2.58;;;9.40;99.90;;;;;;5073728;28;20799;-64
2024/03/21 13:49:09;;;;;;;14.18;2.83;;;9.50;99.90;;;;;;5064733;28;20417;-64
2024/03/21 13:51:35;;;;;;;6.70;2.55;;;9.50;99.90;;;;;;5067876;28;20044;-64
2024/03/21 13:54:01;;;;;;;5.63;2.28;;;9.50;99.90;;;;;;5052289;28;20048;-64
2024/03/21 13:56:28;;;;;;;5.50;2.42;;;9.50;99.90;;;;;;5078696;28;20044;-64
2024/03/21 13:58:57;;;;;;;5.70;1.60;;;9.50;99.90;;;;;;5079524;28;20047;-64
2024/03/21 14:01:24;;;;;;;2.40;1.50;;;9.40;99.90;;;;;;5074776;28;20040;-64
2024/03/21 14:03:49;;;;;;;3.75;1.45;;;9.30;99.90;;;;;;5076912;28;20036;-64
2024/03/21 14:06:17;;;;;;;8.55;2.08;;;9.40;99.90;;;;;;5067843;28;20055;-64
2024/03/21 14:08:46;;;;;;;2.08;1.40;;;9.30;99.90;;;;;;5065115;28;20052;-64
2024/03/21 14:11:13;;;;;;;6.53;2.08;;;9.30;99.90;;;;;;5067972;28;20044;-64
2024/03/21 14:13:46;;;;;;;1.50;1.40;;;9.30;99.90;;;;;;5064333;28;20494;-64
2024/03/21 14:16:13;;;;;;;8.88;2.47;;;9.40;99.90;;;;;;5066507;28;20486;-64
2024/03/21 14:18:39;;;;;;;9.23;2.00;;;9.30;99.90;;;;;;5064185;28;20103;-64
2024/03/21 14:21:06;;;;;;;8.02;2.70;;;9.30;99.90;;;;;;5064597;28;20048;-64
2024/03/21 14:23:32;;;;;;;5.10;2.35;;;9.40;99.90;;;;;;5064899;28;20045;-64
2024/03/21 14:26:03;;;;;;;3.17;1.70;;;9.40;99.90;;;;;;5068178;28;20056;-64
2024/03/21 14:28:31;;;;;;;8.82;2.10;;;9.40;99.90;;;;;;5070980;28;20036;-64
2024/03/21 14:30:56;;;;;;;6.55;1.73;;;9.40;99.90;;;;;;5065795;28;20463;-64
2024/03/21 14:33:24;;;;;;;7.30;2.28;;;9.40;99.90;;;;;;5071849;28;20115;-64
2024/03/21 14:35:50;;;;;;;3.70;1.33;;;9.40;99.90;;;;;;5066929;28;20048;-64
2024/03/21 14:38:16;;;;;;;4.75;1.60;;;9.30;99.90;;;;;;5062782;28;20403;-64
2024/03/21 14:40:45;;;;;;;1.77;1.50;;;9.30;99.90;;;;;;5074419;28;20569;-64
2024/03/21 14:43:13;;;;;;;7.82;1.95;;;9.30;99.90;;;;;;5062091;28;20442;-64
2024/03/21 14:45:40;;;;;;;4.28;1.85;;;9.30;99.90;;;;;;5075899;28;20037;-64
2024/03/21 14:48:06;;;;;;;3.60;1.80;;;9.30;99.90;;;;;;5063739;28;20144;-64
2024/03/21 14:50:33;;;;;;;5.80;1.83;;;9.30;99.90;;;;;;5069336;28;20040;-64
2024/03/21 14:53:00;;;;;;;3.00;1.35;;;9.30;99.90;;;;;;5065077;28;20047;-64
2024/03/21 14:55:26;;;;;;;6.70;2.15;;;9.30;99.90;;;;;;5052481;28;20049;-64
2024/03/21 14:57:52;;;;;;;12.10;1.95;;;9.40;99.90;;;;;;5067533;28;20396;-64
2024/03/21 15:00:17;;;;;;;3.90;1.60;;;9.50;99.90;;;;;;5075047;28;20398;-64
2024/03/21 15:02:43;;;;;;;8.02;2.10;;;9.50;99.90;;;;;;5071139;28;20040;-65
2024/03/21 15:05:09;;;;;;;3.90;1.80;;;9.60;99.90;;;;;;5069422;28;20255;-64
2024/03/21 15:07:35;;;;;;;6.72;1.60;;;9.60;99.90;;;;;;5062372;28;20032;-64
2024/03/21 15:10:05;;;;;;;5.00;1.77;;;9.70;99.90;;;;;;5072285;28;20048;-64
2024/03/21 15:12:34;;;;;;;3.95;1.40;;;9.70;99.90;;;;;;5081908;28;20390;-64
2024/03/21 15:15:00;;;;;;;7.55;1.83;;;9.70;99.90;;;;;;5071935;28;20044;-64
2024/03/21 15:17:26;;;;;;;7.22;1.40;;;9.70;99.90;;;;;;5072433;28;20513;-64
2024/03/21 15:19:52;;;;;;;3.67;1.63;;;9.70;99.90;;;;;;5074721;28;20078;-64
2024/03/21 15:22:24;;;;;;;3.10;1.48;;;9.70;99.90;;;;;;5066707;28;20479;-64
2024/03/21 15:24:50;;;;;;;8.25;1.42;;;9.70;99.90;;;;;;5080294;28;20090;-64
2024/03/21 15:27:16;;;;;;;1.20;1.15;;;9.70;99.90;;;;;;5071056;28;20044;-64
2024/03/21 15:29:42;;;;;;;2.70;1.25;;;9.70;99.90;;;;;;5087906;28;20052;-64
2024/03/21 15:32:08;;;;;;;1.20;1.10;;;9.70;99.90;;;;;;5077291;28;20047;-64
2024/03/21 15:34:33;;;;;;;2.22;1.20;;;9.80;99.90;;;;;;5076406;28;20048;-64
2024/03/21 15:36:59;;;;;;;1.27;0.88;;;9.70;99.90;;;;;;5081712;28;20052;-64
2024/03/21 15:39:27;;;;;;;2.72;1.05;;;9.70;99.90;;;;;;5079451;28;20044;-64
2024/03/21 15:41:53;;;;;;;3.63;1.17;;;9.60;99.90;;;;;;5072704;28;20074;-64
2024/03/21 15:44:18;;;;;;;1.63;1.08;;;9.60;99.90;;;;;;5073180;28;20036;-65
2024/03/21 15:46:44;;;;;;;1.58;1.17;;;9.60;99.90;;;;;;5071704;28;20459;-65
2024/03/21 15:49:10;;;;;;;2.08;1.20;;;9.60;99.90;;;;;;5070376;28;20127;-65
2024/03/21 15:51:36;;;;;;;1.67;1.10;;;9.50;99.90;;;;;;5063716;28;20067;-65
2024/03/21 15:54:01;;;;;;;2.53;1.33;;;9.50;99.90;;;;;;5066741;28;20044;-63
2024/03/21 15:56:27;;;;;;;5.20;1.30;;;9.60;99.90;;;;;;5072979;28;20052;-65
2024/03/21 15:58:53;;;;;;;3.95;1.40;;;9.50;99.90;;;;;;5068798;28;20044;-65
2024/03/21 16:01:18;;;;;;;4.18;1.15;;;9.50;99.90;;;;;;5069678;28;20113;-65
2024/03/21 16:03:44;;;;;;;1.50;1.40;;;9.50;99.90;;;;;;5072277;28;20627;-65
2024/03/21 16:06:11;;;;;;;2.20;1.50;;;9.50;99.90;;;;;;5076748;28;20075;-65
2024/03/21 16:08:36;;;;;;;1.10;1.10;;;9.40;99.90;;;;;;5072845;28;20039;-65
2024/03/21 16:11:02;;;;;;;4.63;1.77;;;9.30;99.90;;;;;;5074504;28;20039;-65
2024/03/21 16:13:28;;;;;;;5.38;1.58;;;9.30;99.90;;;;;;5076433;28;20493;-65
2024/03/21 16:15:54;;;;;;;3.78;1.63;;;9.40;99.90;;;;;;5088500;28;20032;-65
2024/03/21 16:18:22;;;;;;;1.95;1.33;;;9.40;99.90;;;;;;5087656;28;20066;-66
2024/03/21 16:20:48;;;;;;;4.60;1.88;;;9.40;99.90;;;;;;5079787;28;20052;-65
2024/03/21 16:23:14;;;;;;;4.78;1.88;;;9.30;99.90;;;;;;5070821;28;20123;-65
2024/03/21 16:25:41;;;;;;;4.80;1.52;;;9.30;99.90;;;;;;5070361;28;20067;-65
2024/03/21 16:28:07;;;;;;;2.65;1.58;;;9.20;99.90;;;;;;5068000;28;20056;-66
2024/03/21 16:30:33;;;;;;;3.92;2.17;;;9.20;99.90;;;;;;5076189;28;20101;-65
2024/03/21 16:33:00;;;;;;;2.28;1.40;;;9.20;99.90;;;;;;5069724;28;20049;-66
2024/03/21 16:35:26;;;;;;;4.30;2.08;;;9.20;99.90;;;;;;5065700;28;20045;-65
2024/03/21 16:37:53;;;;;;;2.78;2.00;;;9.10;99.90;;;;;;5069422;28;20125;-66
2024/03/21 16:40:19;;;;;;;6.18;2.35;;;9.10;99.90;;;;;;5071934;28;20091;-65
2024/03/21 16:42:49;;;;;;;6.82;2.22;;;9.10;99.90;;;;;;5079077;28;20044;-66
2024/03/21 16:45:15;;;;;;;7.40;2.38;;;9.10;99.90;;;;;;5068043;28;20112;-65
2024/03/21 16:47:42;;;;;;;5.18;2.05;;;9.10;99.90;;;;;;5063239;28;20725;-65
2024/03/21 16:50:08;;;;;;;9.68;2.67;;;9.00;99.90;;;;;;5068024;28;20040;-66
2024/03/21 16:52:34;;;;;;;7.45;2.80;;;9.10;99.90;;;;;;5067161;28;20502;-65
2024/03/21 16:55:00;;;;;;;4.25;2.25;;;9.10;99.90;;;;;;5073994;28;20047;-65
2024/03/21 16:57:26;;;;;;;4.57;2.15;;;9.00;99.90;;;;;;5068413;28;20123;-66
2024/03/21 16:59:52;;;;;;;5.53;2.58;;;9.00;99.90;;;;;;5085925;28;20052;-65
2024/03/21 17:02:18;;;;;;;6.35;2.40;;;9.00;99.90;;;;;;5066024;28;20562;-65
2024/03/21 17:04:43;;;;;;;4.07;2.70;;;8.90;99.90;;;;;;5069113;28;20044;-66
2024/03/21 17:07:09;;;;;;;6.53;2.15;;;9.00;99.90;;;;;;5066471;28;20040;-66
2024/03/21 17:09:37;;;;;;;5.68;2.47;;;8.90;99.90;;;;;;5065620;28;20824;-65
2024/03/21 17:12:03;;;;;;;3.67;1.88;;;8.90;99.90;;;;;;5062420;28;20487;-65
2024/03/21 17:14:31;;;;;;;4.00;2.30;;;8.90;99.90;;;;;;5066136;28;20040;-65
2024/03/21 17:17:00;;;;;;;4.13;1.73;;;8.90;99.90;;;;;;5062512;28;20075;-65
2024/03/21 17:19:26;;;;;;;1.67;1.42;;;8.90;99.90;;;;;;5049190;28;20513;-65
2024/03/21 17:21:52;;;;;;;2.15;1.50;;;8.80;99.90;;;;;;5073457;28;20048;-66
2024/03/21 17:24:17;;;;;;;3.03;1.75;;;8.80;99.90;;;;;;5075709;28;20044;-65
2024/03/21 17:26:43;;;;;;;7.57;1.70;;;8.80;99.90;;;;;;5073778;28;20044;-65
2024/03/21 17:29:09;;;;;;;5.03;1.75;;;8.80;99.90;;;;;;5078273;28;20473;-65
2024/03/21 17:31:35;;;;;;;4.28;2.35;;;8.80;99.90;;;;;;5076616;28;20040;-66
2024/03/21 17:34:04;;;;;;;8.60;2.85;;;8.70;99.90;;;;;;5073813;28;20071;-65
2024/03/21 17:36:33;;;;;;;3.55;2.22;;;8.70;99.90;;;;;;5059576;28;20041;-65
2024/03/21 17:39:00;;;;;;;3.50;2.30;;;8.70;99.90;;;;;;5065858;28;20083;-66
2024/03/21 17:41:30;;;;;;;4.47;2.38;;;8.70;99.90;;;;;;5068350;28;20036;-66
2024/03/21 17:43:59;;;;;;;5.00;2.60;;;8.70;1.00;;;;;;5049049;28;20132;-65
2024/03/21 17:46:25;;;;;;;6.28;2.08;;;8.70;1.00;;;;;;5068767;28;20501;-65
2024/03/21 17:48:51;;;;;;;3.83;2.15;;;8.70;1.00;;;;;;5068953;28;20370;-65
2024/03/21 17:51:18;;;;;;;7.13;3.08;;;8.70;1.00;;;;;;5064461;28;20043;-65
2024/03/21 17:53:44;;;;;;;7.13;2.55;;;8.70;1.00;;;;;;5063247;28;20036;-65
2024/03/21 17:56:11;;;;;;;7.82;3.30;;;8.70;1.00;;;;;;5062882;28;20052;-65
2024/03/21 17:58:37;;;;;;;6.50;3.13;;;8.70;1.00;;;;;;5060906;28;20048;-66
2024/03/21 18:01:04;;;;;;;6.55;3.22;;;8.70;1.00;;;;;;5075786;28;20053;-66
2024/03/21 18:03:30;;;;;;;10.60;3.28;;;8.70;1.00;;;;;;5063466;28;20040;-65
2024/03/21 18:05:59;;;;;;;5.43;3.00;;;8.70;1.00;;;;;;5067183;28;20144;-65
2024/03/21 18:08:26;;;;;;;6.50;2.30;;;8.70;1.00;;;;;;5063430;28;20147;-66
2024/03/21 18:10:53;;;;;;;10.02;3.28;;;8.70;1.00;;;;;;5071277;28;20341;-65
2024/03/21 18:13:20;;;;;;;9.35;3.90;;;8.70;1.00;;;;;;5078049;28;20044;-65
2024/03/21 18:15:46;;;;;;;4.07;2.53;;;8.70;1.00;;;;;;5078317;28;20489;-66
2024/03/21 18:18:12;;;;;;;4.38;2.42;;;8.70;1.00;;;;;;5076982;28;20052;-65
2024/03/21 18:20:43;;;;;;;8.00;2.92;;;8.70;1.00;;;;;;5080510;28;21010;-66
2024/03/21 18:23:10;;;;;;;4.40;2.53;;;8.70;1.00;;;;;;5079709;28;20394;-65
2024/03/21 18:25:37;;;;;;;6.43;3.28;;;8.70;10.10;;;;;;5075390;28;20470;-65
2024/03/21 18:28:05;;;;;;;4.93;3.25;;;8.70;19.20;;;;;;5079948;28;20493;-65
2024/03/21 18:30:31;;;;;;;5.70;3.78;;;8.70;10.10;;;;;;5076873;28;20569;-66
2024/03/21 18:32:57;;;;;;;7.60;3.90;;;8.70;1.00;;;;;;5068294;28;20100;-65
2024/03/21 18:35:23;;;;;;;5.80;3.55;;;8.60;1.00;;;;;;5067175;28;20446;-65
2024/03/21 18:37:49;;;;;;;5.15;4.47;;;8.60;1.00;;;;;;5064524;28;20052;-66
2024/03/21 18:40:15;;;;;;;7.22;4.03;;;8.60;1.00;;;;;;5066401;28;20397;-66
2024/03/21 18:42:41;;;;;;;4.38;3.97;;;8.60;1.00;;;;;;5069145;28;20052;-65
2024/03/21 18:45:10;;;;;;;8.68;5.00;;;8.60;1.00;;;;;;5072994;28;20117;-65
2024/03/21 18:47:35;;;;;;;9.27;5.93;;;8.60;1.00;;;;;;5080403;28;20032;-65
2024/03/21 18:50:01;;;;;;;11.52;6.30;;;8.60;1.00;;;;;;5077795;28;20048;-66
2024/03/21 18:52:27;;;;;;;12.00;7.03;;;8.60;1.00;;;;;;5072802;28;20455;-65
2024/03/21 18:54:55;;;;;;;11.43;7.38;;;8.60;1.00;;;;;;5064606;28;20182;-66
2024/03/21 18:57:21;;;;;;;12.88;9.10;;;8.60;1.00;;;;;;5062206;28;20043;-66
2024/03/21 18:59:46;;;;;;;12.55;8.38;;;8.50;1.00;;;;;;5070529;28;20044;-65
2024/03/21 19:02:12;;;;;;;14.70;9.55;;;8.60;1.00;;;;;;5067586;28;20594;-65
2024/03/21 19:04:38;;;;;;;11.95;9.02;;;8.50;9.20;;;;;;5079801;28;20101;-65
2024/03/21 19:07:04;;;;;;;10.93;8.82;;;8.50;24.00;;;;;;5061026;28;20066;-65
2024/03/21 19:09:30;;;;;;;14.00;9.52;;;8.50;53.50;;;;;;5066166;28;20046;-65
2024/03/21 19:11:56;;;;;;;11.10;9.75;;;8.50;79.30;;;;;;5064669;28;20032;-65
2024/03/21 19:14:22;;;;;;;12.05;8.75;;;8.50;93.90;;;;;;5072895;28;20486;-65
2024/03/21 19:16:47;;;;;;;11.48;8.93;;;8.50;99.50;;;;;;5068318;28;20040;-65
2024/03/21 19:19:13;;;;;;;10.07;8.77;;;8.50;99.90;;;;;;5070699;28;20364;-65
2024/03/21 19:21:39;;;;;;;11.98;8.82;;;8.50;99.90;;;;;;5076898;28;20036;-65
2024/03/21 19:24:05;;;;;;;11.98;9.85;;;8.50;99.90;;;;;;5078661;28;20081;-65
2024/03/21 19:26:31;;;;;;;10.30;8.10;;;8.50;99.90;;;;;;5069307;28;20048;-65
2024/03/21 19:28:56;;;;;;;12.10;7.80;;;8.50;99.90;;;;;;5069924;28;20106;-65
2024/03/21 19:31:23;;;;;;;10.80;8.82;;;8.50;99.90;;;;;;5082079;28;20066;-65
2024/03/21 19:33:49;;;;;;;13.82;8.68;;;8.50;99.90;;;;;;5061206;28;20142;-65
2024/03/21 19:36:15;;;;;;;14.07;8.43;;;8.50;99.90;;;;;;5068064;28;20044;-65
2024/03/21 19:38:41;;;;;;;14.20;7.28;;;8.50;99.90;;;;;;5070966;28;20383;-65
2024/03/21 19:41:06;;;;;;;12.40;9.25;;;8.50;99.90;;;;;;5066631;28;20532;-65
2024/03/21 19:43:33;;;;;;;13.85;8.15;;;8.50;99.90;;;;;;5077093;28;20517;-65
2024/03/21 19:45:58;;;;;;;12.63;8.05;;;8.50;99.90;;;;;;5077697;28;20044;-65
2024/03/21 19:48:24;;;;;;;8.10;5.60;;;8.50;99.90;;;;;;5078344;28;20055;-65
2024/03/21 19:50:50;;;;;;;12.13;8.00;;;8.50;99.90;;;;;;5076631;28;20123;-65